Time;durP1;ratioP1;P1;durP2;ratioP2;P2;SDS_P1;SDS_P2;PMS_P1;PMS_P2;Temp;Humidity;BMP_temperature;BMP_pressure;BME280_temperature;BME280_humidity;BME280_pressure;Samples;Min_cycle;Max_cycle;Signal;HPM_P1;HPM_P2
2022/07/15 00:00:33;;;;;;;;;;;18.60;47.50;;;;;;6258224;23;19911;-87
2022/07/15 00:03:01;;;;;;;;;;;18.60;47.50;;;;;;6260374;23;20305;-88
2022/07/15 00:05:27;;;;;;;;;;;18.60;47.60;;;;;;6233329;23;20328;-88
2022/07/15 00:07:54;;;;;;;;;;;18.60;47.80;;;;;;6258165;23;19904;-88
2022/07/15 00:10:23;;;;;;;;;;;18.50;47.70;;;;;;6260178;22;19914;-89
2022/07/15 00:12:56;;;;;;;;;;;18.50;47.70;;;;;;6256593;23;19947;-88
2022/07/15 00:15:24;;;;;;;;;;;18.50;47.70;;;;;;6260111;22;19907;-87
2022/07/15 00:17:52;;;;;;;;;;;18.40;47.80;;;;;;6232554;23;20264;-87
2022/07/15 00:20:18;;;;;;;;;;;18.30;47.70;;;;;;6261735;23;19951;-86
2022/07/15 00:22:44;;;;;;;;;;;18.30;47.70;;;;;;6252418;22;19916;-88
2022/07/15 00:25:10;;;;;;;;;;;18.30;47.60;;;;;;6253265;23;20285;-88
2022/07/15 00:27:36;;;;;;;;;;;18.20;47.60;;;;;;6228252;23;19919;-88
2022/07/15 00:30:03;;;;;;;;;;;18.10;47.70;;;;;;6226179;23;19914;-86
2022/07/15 00:32:28;;;;;;;;;;;18.00;47.80;;;;;;6201789;23;19918;-87
2022/07/15 00:34:54;;;;;;;;;;;18.00;47.80;;;;;;6228770;23;20320;-88
2022/07/15 00:37:21;;;;;;;;;;;17.90;47.80;;;;;;6251302;23;19986;-88
2022/07/15 00:39:49;;;;;;;;;;;17.80;47.90;;;;;;6251648;23;19932;-89
2022/07/15 00:42:43;;;;;;;;;;;17.80;48.10;;;;;;6250372;22;19919;-88
2022/07/15 00:45:00;;;;;;;;;;;17.80;48.20;;;;;;6249495;23;19910;-89
2022/07/15 00:47:26;;;;;;;;;;;17.70;48.20;;;;;;6251501;22;19911;-88
2022/07/15 00:49:51;;;;;;;;;;;17.70;48.40;;;;;;6253133;23;19953;-89
2022/07/15 00:52:18;;;;;;;;;;;17.70;48.70;;;;;;6251592;22;20042;-88
2022/07/15 00:54:44;;;;;;;;;;;17.70;48.80;;;;;;6223308;23;19904;-88
2022/07/15 00:57:10;;;;;;;;;;;17.70;49.00;;;;;;6250256;22;19973;-88
2022/07/15 00:59:37;;;;;;;;;;;17.80;49.10;;;;;;6222680;23;19904;-88
2022/07/15 01:02:02;;;;;;;;;;;17.80;49.40;;;;;;6222931;23;19943;-88
2022/07/15 01:04:29;;;;;;;;;;;18.00;49.40;;;;;;6248388;23;19927;-88
2022/07/15 01:06:55;;;;;;;;;;;18.00;49.30;;;;;;6250550;22;19942;-88
2022/07/15 01:09:21;;;;;;;;;;;18.10;49.40;;;;;;6223543;23;19912;-89
2022/07/15 01:11:47;;;;;;;;;;;18.30;49.50;;;;;;6250343;22;19946;-88
2022/07/15 01:14:12;;;;;;;;;;;18.30;49.40;;;;;;6249029;23;19957;-88
2022/07/15 01:16:38;;;;;;;;;;;18.40;49.40;;;;;;6252757;23;19976;-88
2022/07/15 01:19:04;;;;;;;;;;;18.60;49.30;;;;;;6253440;23;20345;-87
2022/07/15 01:21:31;;;;;;;;;;;18.60;49.20;;;;;;6253506;23;19960;-88
2022/07/15 01:23:56;;;;;;;;;;;18.70;49.10;;;;;;6226652;23;19911;-88
2022/07/15 01:26:22;;;;;;;;;;;18.80;49.00;;;;;;6254273;22;19946;-87
2022/07/15 01:28:47;;;;;;;;;;;18.80;48.90;;;;;;6253912;23;19918;-88
2022/07/15 01:31:13;;;;;;;;;;;18.80;48.80;;;;;;6252076;22;19903;-88
2022/07/15 01:33:38;;;;;;;;;;;18.80;49.00;;;;;;6251309;23;19926;-88
2022/07/15 01:36:05;;;;;;;;;;;18.80;48.90;;;;;;6249014;22;19935;-87
2022/07/15 01:38:30;;;;;;;;;;;18.70;48.90;;;;;;6248896;23;19903;-88
2022/07/15 01:40:56;;;;;;;;;;;18.70;48.90;;;;;;6248416;23;19942;-87
2022/07/15 01:43:22;;;;;;;;;;;18.70;49.00;;;;;;6248934;22;19912;-87
2022/07/15 01:45:47;;;;;;;;;;;18.70;49.00;;;;;;6249027;23;19908;-88
2022/07/15 01:50:58;;;;;;;;;;;18.60;49.00;;;;;;6250069;23;19961;-87
2022/07/15 01:53:24;;;;;;;;;;;18.50;49.00;;;;;;6222801;23;19919;-87
2022/07/15 01:55:50;;;;;;;;;;;18.50;49.00;;;;;;6222804;23;19907;-89
2022/07/15 01:58:15;;;;;;;;;;;18.40;48.90;;;;;;6223208;23;19912;-88
2022/07/15 02:00:41;;;;;;;;;;;18.30;49.00;;;;;;6247249;23;19943;-89
2022/07/15 02:03:07;;;;;;;;;;;18.20;48.90;;;;;;6248018;23;19915;-87
2022/07/15 02:05:33;;;;;;;;;;;18.10;48.90;;;;;;6222794;23;19908;-87
2022/07/15 02:07:59;;;;;;;;;;;18.00;49.00;;;;;;6222293;23;19958;-89
2022/07/15 02:10:24;;;;;;;;;;;17.80;49.20;;;;;;6247841;23;19935;-88
2022/07/15 02:12:49;;;;;;;;;;;17.70;49.30;;;;;;6249655;22;20300;-87
2022/07/15 02:15:15;;;;;;;;;;;17.70;49.50;;;;;;6253498;23;19914;-88
2022/07/15 02:17:41;;;;;;;;;;;17.60;49.60;;;;;;6256648;22;19979;-87
2022/07/15 02:20:07;;;;;;;;;;;17.50;49.60;;;;;;6254740;23;19908;-87
2022/07/15 02:22:32;;;;;;;;;;;17.50;49.70;;;;;;6249461;23;19899;-87
2022/07/15 02:24:57;;;;;;;;;;;17.30;49.70;;;;;;6249991;23;19904;-87
2022/07/15 02:27:23;;;;;;;;;;;17.30;49.80;;;;;;6249184;23;19939;-87
2022/07/15 02:29:48;;;;;;;;;;;17.20;49.80;;;;;;6249560;23;19908;-86
2022/07/15 02:32:14;;;;;;;;;;;17.10;49.80;;;;;;6249483;23;19966;-88
2022/07/15 02:34:39;;;;;;;;;;;17.00;50.00;;;;;;6250310;23;19908;-88
2022/07/15 02:37:05;;;;;;;;;;;17.00;50.20;;;;;;6222463;23;19918;-87
2022/07/15 02:39:30;;;;;;;;;;;16.90;50.50;;;;;;6249276;23;19904;-88
2022/07/15 02:41:56;;;;;;;;;;;16.90;50.60;;;;;;6223889;23;19943;-88
2022/07/15 02:44:21;;;;;;;;;;;16.80;50.50;;;;;;6249724;23;20292;-87
2022/07/15 02:46:47;;;;;;;;;;;16.80;50.50;;;;;;6249471;23;19939;-87
2022/07/15 02:49:12;;;;;;;;;;;16.70;50.70;;;;;;6251126;23;19911;-87
2022/07/15 02:51:38;;;;;;;;;;;16.60;50.60;;;;;;6223945;23;19912;-87
2022/07/15 02:54:04;;;;;;;;;;;16.60;50.70;;;;;;6223623;23;19979;-87
2022/07/15 02:56:30;;;;;;;;;;;16.50;50.70;;;;;;6250629;23;19912;-87
2022/07/15 02:58:55;;;;;;;;;;;16.40;50.80;;;;;;6250724;23;19954;-86
2022/07/15 03:01:21;;;;;;;;;;;16.40;50.80;;;;;;6249442;22;20626;-87
2022/07/15 03:03:46;;;;;;;;;;;16.30;50.80;;;;;;6250471;23;20407;-87
2022/07/15 03:06:11;;;;;;;;;;;16.30;50.90;;;;;;6249987;22;19907;-87
2022/07/15 03:08:37;;;;;;;;;;;16.30;51.00;;;;;;6224149;23;19951;-88
2022/07/15 03:11:02;;;;;;;;;;;16.20;51.10;;;;;;6248831;22;19907;-87
2022/07/15 03:13:29;;;;;;;;;;;16.20;51.10;;;;;;6250759;23;19903;-87
2022/07/15 03:15:54;;;;;;;;;;;16.10;51.30;;;;;;6252330;23;19932;-88
2022/07/15 03:18:21;;;;;;;;;;;16.10;51.30;;;;;;6255567;22;19908;-89
2022/07/15 03:20:46;;;;;;;;;;;16.10;51.40;;;;;;6256311;23;19924;-87
2022/07/15 03:23:12;;;;;;;;;;;16.10;51.30;;;;;;6253051;22;20319;-88
2022/07/15 03:25:38;;;;;;;;;;;16.00;51.50;;;;;;6228816;23;19908;-88
2022/07/15 03:28:03;;;;;;;;;;;16.00;51.60;;;;;;6248819;22;19904;-87
2022/07/15 03:30:29;;;;;;;;;;;16.00;51.80;;;;;;6249352;23;19907;-88
2022/07/15 03:32:54;;;;;;;;;;;16.00;51.90;;;;;;6250179;23;19911;-89
2022/07/15 03:35:20;;;;;;;;;;;16.00;52.00;;;;;;6249823;23;19912;-88
2022/07/15 03:37:45;;;;;;;;;;;16.00;52.30;;;;;;6250183;23;19903;-89
2022/07/15 03:40:11;;;;;;;;;;;16.00;52.20;;;;;;6250248;23;19958;-88
2022/07/15 03:42:36;;;;;;;;;;;16.00;52.20;;;;;;6224183;23;19912;-87
2022/07/15 03:45:02;;;;;;;;;;;15.90;52.20;;;;;;6250480;23;19908;-87
2022/07/15 03:47:29;;;;;;;;;;;16.00;52.30;;;;;;6251036;23;19946;-88
2022/07/15 03:49:54;;;;;;;;;;;16.00;52.60;;;;;;6250799;23;19923;-86
2022/07/15 03:52:20;;;;;;;;;;;16.10;53.00;;;;;;6250882;23;19911;-87
2022/07/15 03:54:45;;;;;;;;;;;16.20;53.30;;;;;;6251112;22;20313;-86
2022/07/15 03:57:11;;;;;;;;;;;16.40;53.70;;;;;;6251959;23;19908;-88
2022/07/15 03:59:36;;;;;;;;;;;16.50;54.00;;;;;;6252652;22;20247;-86
2022/07/15 04:02:02;;;;;;;;;;;16.80;54.30;;;;;;6225934;23;19908;-88
2022/07/15 04:04:28;;;;;;;;;;;17.00;54.50;;;;;;6251216;22;19915;-88
2022/07/15 04:06:53;;;;;;;;;;;17.30;54.70;;;;;;6250193;23;19911;-86
2022/07/15 04:09:19;;;;;;;;;;;17.60;54.80;;;;;;6225394;23;20275;-89
2022/07/15 04:11:44;;;;;;;;;;;17.90;54.80;;;;;;6249837;23;19915;-88
2022/07/15 04:14:11;;;;;;;;;;;18.30;54.80;;;;;;6250666;22;19915;-88
2022/07/15 04:16:36;;;;;;;;;;;18.50;54.60;;;;;;6222895;23;19907;-88
2022/07/15 04:19:02;;;;;;;;;;;18.90;54.60;;;;;;6223429;23;19914;-88
2022/07/15 04:21:27;;;;;;;;;;;19.30;54.40;;;;;;6250563;23;19908;-88
2022/07/15 04:23:53;;;;;;;;;;;19.70;54.20;;;;;;6222995;23;19916;-88
2022/07/15 04:26:20;;;;;;;;;;;20.00;53.90;;;;;;6247017;23;22580;-88
2022/07/15 04:28:45;;;;;;;;;;;20.40;53.60;;;;;;6250508;22;19985;-88
2022/07/15 04:31:11;;;;;;;;;;;20.70;53.20;;;;;;6250135;23;19908;-88
2022/07/15 04:33:36;;;;;;;;;;;21.20;52.90;;;;;;6250213;22;19912;-88
2022/07/15 04:36:02;;;;;;;;;;;21.50;52.50;;;;;;6248269;23;19907;-88
2022/07/15 04:38:27;;;;;;;;;;;21.90;52.10;;;;;;6249859;22;19983;-89
2022/07/15 04:40:53;;;;;;;;;;;22.30;51.60;;;;;;6222885;23;20316;-89
2022/07/15 04:43:19;;;;;;;;;;;22.80;50.80;;;;;;6248061;23;19903;-88
2022/07/15 04:45:44;;;;;;;;;;;23.10;50.20;;;;;;6249036;23;20265;-89
2022/07/15 04:50:55;;;;;;;;;;;23.90;48.80;;;;;;6248706;23;20289;-89
2022/07/15 04:53:21;;;;;;;;;;;24.30;48.00;;;;;;6221204;22;19958;-89
2022/07/15 04:55:47;;;;;;;;;;;24.70;47.20;;;;;;6247874;23;19916;-88
2022/07/15 04:58:14;;;;;;;;;;;25.20;46.30;;;;;;6248444;23;19908;-88
2022/07/15 05:00:46;;;;;;;;;;;25.60;45.90;;;;;;6247580;23;19915;-88
2022/07/15 05:03:12;;;;;;;;;;;25.90;44.40;;;;;;6221060;23;19908;-88
2022/07/15 05:05:38;;;;;;;;;;;26.20;43.70;;;;;;6247872;22;19998;-87
2022/07/15 05:08:04;;;;;;;;;;;26.50;43.40;;;;;;6246947;23;20232;-88
2022/07/15 05:10:29;;;;;;;;;;;26.80;43.00;;;;;;6221087;23;19959;-89
2022/07/15 05:12:55;;;;;;;;;;;27.30;42.50;;;;;;6247935;23;20291;-88
2022/07/15 05:15:20;;;;;;;;;;;27.80;41.60;;;;;;6220991;22;19954;-88
2022/07/15 05:17:46;;;;;;;;;;;28.20;40.30;;;;;;6247889;23;20384;-88
2022/07/15 05:20:11;;;;;;;;;;;28.40;38.50;;;;;;6247374;23;20313;-88
2022/07/15 05:22:37;;;;;;;;;;;28.30;37.20;;;;;;6246523;23;19915;-88
2022/07/15 05:25:02;;;;;;;;;;;28.20;36.50;;;;;;6246364;23;19903;-88
2022/07/15 05:27:28;;;;;;;;;;;28.00;36.10;;;;;;6221414;23;19983;-88
2022/07/15 05:29:53;;;;;;;;;;;27.70;35.90;;;;;;6247568;23;19915;-87
2022/07/15 05:32:19;;;;;;;;;;;27.50;35.90;;;;;;6246911;23;19914;-87
2022/07/15 05:34:44;;;;;;;;;;;27.30;36.20;;;;;;6221456;23;20236;-87
2022/07/15 05:37:10;;;;;;;;;;;27.10;36.20;;;;;;6249134;23;19908;-87
2022/07/15 05:39:35;;;;;;;;;;;27.00;36.40;;;;;;6248665;23;19914;-88
2022/07/15 05:42:01;;;;;;;;;;;26.90;36.60;;;;;;6247584;23;20214;-87
2022/07/15 05:44:26;;;;;;;;;;;26.80;36.60;;;;;;6246355;23;20336;-87
2022/07/15 05:46:52;;;;;;;;;;;26.80;36.50;;;;;;6248565;22;19907;-87
2022/07/15 05:49:17;;;;;;;;;;;26.80;36.60;;;;;;6249213;23;19954;-87
2022/07/15 05:51:42;;;;;;;;;;;26.70;36.30;;;;;;6248415;22;19907;-86
2022/07/15 05:54:08;;;;;;;;;;;26.60;36.20;;;;;;6247574;23;19915;-89
2022/07/15 05:56:33;;;;;;;;;;;26.40;35.90;;;;;;6221357;23;19947;-87
2022/07/15 05:58:59;;;;;;;;;;;26.30;35.90;;;;;;6246116;23;19915;-88
2022/07/15 06:01:25;;;;;;;;;;;26.20;36.30;;;;;;6248018;22;20312;-88
2022/07/15 06:03:51;;;;;;;;;;;26.20;36.40;;;;;;6247623;23;19908;-88
2022/07/15 06:06:16;;;;;;;;;;;26.10;36.40;;;;;;6247459;22;19908;-87
2022/07/15 06:08:42;;;;;;;;;;;26.10;36.60;;;;;;6220933;23;19918;-88
2022/07/15 06:11:08;;;;;;;;;;;26.10;36.70;;;;;;6247557;22;20002;-88
2022/07/15 06:13:33;;;;;;;;;;;26.10;36.60;;;;;;6245828;23;19907;-88
2022/07/15 06:15:59;;;;;;;;;;;26.10;36.30;;;;;;6247468;22;19907;-88
2022/07/15 06:18:25;;;;;;;;;;;26.10;36.40;;;;;;6221145;23;19958;-88
2022/07/15 06:20:51;;;;;;;;;;;26.10;36.50;;;;;;6248322;23;19908;-88
2022/07/15 06:23:17;;;;;;;;;;;26.10;36.40;;;;;;6249516;23;20386;-87
2022/07/15 06:25:42;;;;;;;;;;;26.20;36.50;;;;;;6248172;23;19908;-88
2022/07/15 06:28:10;;;;;;;;;;;26.20;36.50;;;;;;6249246;23;19966;-88
2022/07/15 06:30:35;;;;;;;;;;;26.20;36.70;;;;;;6223434;23;19979;-88
2022/07/15 06:33:03;;;;;;;;;;;26.30;36.70;;;;;;6249716;23;19939;-87
2022/07/15 06:35:30;;;;;;;;;;;26.40;36.70;;;;;;6248714;23;19908;-87
2022/07/15 06:37:55;;;;;;;;;;;26.60;36.60;;;;;;6250513;23;19990;-88
2022/07/15 06:40:21;;;;;;;;;;;26.70;36.20;;;;;;6248603;22;19972;-89
2022/07/15 06:42:46;;;;;;;;;;;26.80;36.20;;;;;;6250219;23;19915;-89
2022/07/15 06:45:12;;;;;;;;;;;27.00;36.00;;;;;;6249877;22;19978;-88
2022/07/15 06:47:41;;;;;;;;;;;27.00;35.80;;;;;;6223701;23;19907;-88
2022/07/15 06:50:22;;;;;;;;;;;27.10;35.50;;;;;;6249508;22;19931;-88
2022/07/15 06:52:51;;;;;;;;;;;27.10;35.50;;;;;;6249294;23;19911;-87
2022/07/15 06:55:16;;;;;;;;;;;27.20;35.70;;;;;;6248499;22;19926;-88
2022/07/15 06:57:44;;;;;;;;;;;27.40;36.00;;;;;;6249647;23;20301;-88
2022/07/15 07:00:11;;;;;;;;;;;27.80;36.10;;;;;;6223024;22;20289;-87
2022/07/15 07:02:37;;;;;;;;;;;28.40;35.80;;;;;;6249737;23;19912;-88
2022/07/15 07:05:04;;;;;;;;;;;29.00;35.60;;;;;;6249360;22;20323;-89
2022/07/15 07:07:30;;;;;;;;;;;29.70;35.00;;;;;;6223971;23;19912;-88
2022/07/15 07:09:55;;;;;;;;;;;30.20;34.20;;;;;;6250297;23;19934;-88
2022/07/15 07:12:21;;;;;;;;;;;30.80;33.40;;;;;;6250589;22;19964;-88
2022/07/15 07:14:46;;;;;;;;;;;31.20;32.80;;;;;;6250075;23;20131;-88
2022/07/15 07:17:12;;;;;;;;;;;31.50;32.40;;;;;;6247663;23;19908;-88
2022/07/15 07:19:37;;;;;;;;;;;31.90;32.20;;;;;;6250618;23;19912;-88
2022/07/15 07:22:04;;;;;;;;;;;32.50;31.70;;;;;;6250882;22;20316;-88
2022/07/15 07:24:29;;;;;;;;;;;33.20;30.90;;;;;;6250087;23;20351;-88
2022/07/15 07:26:55;;;;;;;;;;;33.80;30.10;;;;;;6249164;23;19991;-88
2022/07/15 07:29:23;;;;;;;;;;;34.40;29.10;;;;;;6248661;23;20325;-88
2022/07/15 07:31:50;;;;;;;;;;;35.00;28.70;;;;;;6248574;22;19911;-88
2022/07/15 07:34:19;;;;;;;;;;;35.60;26.90;;;;;;6197096;23;19908;-88
2022/07/15 07:36:45;;;;;;;;;;;35.70;24.50;;;;;;6249086;22;19918;-88
2022/07/15 07:39:11;;;;;;;;;;;35.80;24.30;;;;;;6222645;23;20282;-88
2022/07/15 07:41:37;;;;;;;;;;;36.00;23.60;;;;;;6222210;23;19923;-88
2022/07/15 07:44:03;;;;;;;;;;;35.80;22.30;;;;;;6248799;22;19912;-88
2022/07/15 07:46:28;;;;;;;;;;;35.10;22.10;;;;;;6247010;23;19907;-88
2022/07/15 07:48:53;;;;;;;;;;;34.60;21.80;;;;;;6248953;22;19915;-88
2022/07/15 07:51:19;;;;;;;;;;;34.10;22.50;;;;;;6221943;23;19958;-88
2022/07/15 07:53:46;;;;;;;;;;;33.70;22.60;;;;;;6247632;23;19981;-88
2022/07/15 07:56:12;;;;;;;;;;;33.20;22.80;;;;;;6247496;23;19934;-88
2022/07/15 07:58:38;;;;;;;;;;;32.70;23.30;;;;;;6248862;22;19912;-88
2022/07/15 08:01:03;;;;;;;;;;;32.20;23.90;;;;;;6222203;23;20342;-88
2022/07/15 08:03:29;;;;;;;;;;;31.70;24.50;;;;;;6247389;23;20301;-87
2022/07/15 08:05:54;;;;;;;;;;;31.30;25.00;;;;;;6247663;23;19911;-88
2022/07/15 08:08:20;;;;;;;;;;;31.30;25.70;;;;;;6222170;22;20006;-87
2022/07/15 08:10:47;;;;;;;;;;;31.70;25.80;;;;;;6222600;23;19990;-88
2022/07/15 08:13:13;;;;;;;;;;;31.70;25.10;;;;;;6248655;22;19911;-88
2022/07/15 08:15:39;;;;;;;;;;;31.60;24.90;;;;;;6248792;23;20300;-88
2022/07/15 08:18:05;;;;;;;;;;;31.30;24.90;;;;;;6222317;22;19904;-87
2022/07/15 08:20:31;;;;;;;;;;;30.90;25.20;;;;;;6247631;23;19908;-89
2022/07/15 08:23:00;;;;;;;;;;;30.60;25.50;;;;;;6249612;23;20391;-88
2022/07/15 08:25:30;;;;;;;;;;;30.30;26.00;;;;;;6221771;23;19955;-88
2022/07/15 08:27:56;;;;;;;;;;;30.10;26.30;;;;;;6249429;23;19980;-88
2022/07/15 08:30:22;;;;;;;;;;;29.90;26.60;;;;;;6249837;22;20022;-88
2022/07/15 08:32:48;;;;;;;;;;;29.70;26.90;;;;;;6249278;23;19907;-88
2022/07/15 08:35:13;;;;;;;;;;;29.40;27.20;;;;;;6247932;23;20237;-88
2022/07/15 08:37:39;;;;;;;;;;;29.30;27.40;;;;;;6222805;23;19908;-88
2022/07/15 08:40:12;;;;;;;;;;;29.30;28.20;;;;;;6247760;23;19912;-89
2022/07/15 08:42:39;;;;;;;;;;;29.70;27.90;;;;;;6248740;23;19907;-89
2022/07/15 08:45:05;;;;;;;;;;;30.30;27.70;;;;;;6222200;23;19912;-89
2022/07/15 08:47:31;;;;;;;;;;;31.20;27.40;;;;;;6221856;23;20340;-88
2022/07/15 08:50:17;;;;;;;;;;;32.20;26.30;;;;;;6221374;23;19950;-89
2022/07/15 08:53:05;;;;;;;;;;;33.30;25.70;;;;;;6221445;23;20567;-89
2022/07/15 08:55:31;;;;;;;;;;;34.10;24.70;;;;;;6248304;23;19912;-89
2022/07/15 08:57:57;;;;;;;;;;;35.10;23.90;;;;;;6221740;23;19935;-89
2022/07/15 09:00:29;;;;;;;;;;;35.80;23.00;;;;;;6246794;22;19923;-88
2022/07/15 09:02:55;;;;;;;;;;;36.50;21.70;;;;;;6221339;23;19904;-87
2022/07/15 09:05:23;;;;;;;;;;;36.80;21.40;;;;;;6248482;22;20321;-88
2022/07/15 09:07:57;;;;;;;;;;;36.80;20.70;;;;;;6221685;23;19910;-88
2022/07/15 09:10:24;;;;;;;;;;;36.70;19.70;;;;;;6220722;23;20244;-88
2022/07/15 09:12:51;;;;;;;;;;;36.20;18.90;;;;;;6248255;23;19952;-89
2022/07/15 09:15:33;;;;;;;;;;;35.60;19.40;;;;;;6221616;23;19916;-87
2022/07/15 09:18:10;;;;;;;;;;;35.30;19.80;;;;;;6221758;23;19908;-87
2022/07/15 09:20:43;;;;;;;;;;;34.90;19.90;;;;;;6221487;23;19915;-87
2022/07/15 09:23:09;;;;;;;;;;;34.80;19.90;;;;;;6221361;23;19911;-88
2022/07/15 09:25:44;;;;;;;;;;;34.80;19.80;;;;;;6221152;23;19989;-88
2022/07/15 09:28:10;;;;;;;;;;;34.50;19.70;;;;;;6245869;23;19911;-88
2022/07/15 09:33:43;;;;;;;;;;;33.60;20.20;;;;;;6186501;23;19910;-89
2022/07/15 09:36:25;;;;;;;;;;;33.20;20.60;;;;;;6221161;23;19908;-89
2022/07/15 09:38:51;;;;;;;;;;;32.90;20.80;;;;;;6220355;23;20370;-89
2022/07/15 09:41:25;;;;;;;;;;;32.90;21.20;;;;;;6220923;23;19911;-88
2022/07/15 09:43:55;;;;;;;;;;;33.00;21.50;;;;;;6222654;23;19912;-88
2022/07/15 09:46:21;;;;;;;;;;;33.30;21.70;;;;;;6248243;23;19953;-88
2022/07/15 09:48:48;;;;;;;;;;;33.20;21.10;;;;;;6248752;22;19915;-87
2022/07/15 09:51:14;;;;;;;;;;;33.10;21.30;;;;;;6246605;23;19922;-87
2022/07/15 09:53:40;;;;;;;;;;;33.30;21.70;;;;;;6248396;23;19934;-88
2022/07/15 09:56:07;;;;;;;;;;;33.50;20.90;;;;;;6221808;23;19915;-88
2022/07/15 09:58:33;;;;;;;;;;;33.50;21.10;;;;;;6221904;23;19938;-89
2022/07/15 10:00:59;;;;;;;;;;;33.90;21.40;;;;;;6247037;22;19919;-88
2022/07/15 10:03:24;;;;;;;;;;;34.10;21.20;;;;;;6247248;23;19903;-89
2022/07/15 10:05:56;;;;;;;;;;;34.20;21.00;;;;;;6247170;23;19912;-89
2022/07/15 10:08:21;;;;;;;;;;;34.30;21.10;;;;;;6248429;23;19982;-88
2022/07/15 10:10:49;;;;;;;;;;;34.50;20.70;;;;;;6245066;23;19943;-89
2022/07/15 10:13:18;;;;;;;;;;;34.80;20.90;;;;;;6248309;23;19904;-88
2022/07/15 10:15:51;;;;;;;;;;;35.50;20.70;;;;;;6249357;22;20174;-89
2022/07/15 10:18:21;;;;;;;;;;;36.50;20.00;;;;;;6249049;23;19904;-89
2022/07/15 10:20:54;;;;;;;;;;;37.30;19.60;;;;;;6220688;23;20125;-89
2022/07/15 10:23:34;;;;;;;;;;;37.70;18.80;;;;;;6248976;23;19938;-89
2022/07/15 10:26:08;;;;;;;;;;;37.70;18.60;;;;;;6222602;23;19933;-89
2022/07/15 10:28:45;;;;;;;;;;;37.50;18.20;;;;;;6249434;23;19962;-88
2022/07/15 10:31:28;;;;;;;;;;;37.20;18.60;;;;;;6248999;23;19939;-87
2022/07/15 10:34:02;;;;;;;;;;;36.80;18.50;;;;;;6251843;23;20324;-89
2022/07/15 10:36:43;;;;;;;;;;;36.40;18.70;;;;;;6224064;23;19911;-87
2022/07/15 10:39:08;;;;;;;;;;;36.00;19.10;;;;;;6225307;23;19904;-87
2022/07/15 10:41:49;;;;;;;;;;;35.90;19.00;;;;;;6249269;23;19989;-89
2022/07/15 10:44:24;;;;;;;;;;;36.00;19.20;;;;;;6224216;23;19903;-88
2022/07/15 10:47:08;;;;;;;;;;;36.30;19.40;;;;;;6248894;22;19938;-88
2022/07/15 10:49:33;;;;;;;;;;;36.60;19.20;;;;;;6222481;23;20320;-89
2022/07/15 10:52:09;;;;;;;;;;;36.70;19.10;;;;;;6246527;23;19935;-87
2022/07/15 10:54:34;;;;;;;;;;;36.70;18.90;;;;;;6248673;23;19919;-88
2022/07/15 10:57:01;;;;;;;;;;;36.50;18.80;;;;;;6222040;23;20351;-88
2022/07/15 10:59:26;;;;;;;;;;;36.40;18.90;;;;;;6233934;23;19908;-88
2022/07/15 11:01:58;;;;;;;;;;;36.30;19.00;;;;;;6223750;23;19915;-88
2022/07/15 11:04:24;;;;;;;;;;;36.30;18.80;;;;;;6222096;23;19986;-88
2022/07/15 11:07:02;;;;;;;;;;;36.10;18.70;;;;;;6224564;23;19908;-88
2022/07/15 11:09:46;;;;;;;;;;;35.80;18.80;;;;;;6226924;23;19941;-89
2022/07/15 11:12:19;;;;;;;;;;;35.50;19.10;;;;;;6253057;22;19924;-88
2022/07/15 11:14:55;;;;;;;;;;;35.20;19.30;;;;;;6201550;23;19911;-88
2022/07/15 11:17:23;;;;;;;;;;;35.10;19.70;;;;;;6226232;23;19908;-88
2022/07/15 11:19:49;;;;;;;;;;;35.10;19.80;;;;;;6226308;23;19915;-89
2022/07/15 11:22:17;;;;;;;;;;;35.20;19.80;;;;;;6224304;23;19907;-87
2022/07/15 11:24:42;;;;;;;;;;;35.30;19.80;;;;;;6226150;23;19942;-89
2022/07/15 11:27:09;;;;;;;;;;;35.30;19.70;;;;;;6251574;23;19990;-89
2022/07/15 11:30:07;;;;;;;;;;;35.20;19.90;;;;;;6224542;23;20006;-88
2022/07/15 11:32:33;;;;;;;;;;;35.00;19.80;;;;;;6221782;23;19911;-87
2022/07/15 11:35:00;;;;;;;;;;;34.80;19.90;;;;;;6225755;23;20260;-88
2022/07/15 11:37:26;;;;;;;;;;;34.60;19.90;;;;;;6227048;23;19904;-89
2022/07/15 11:40:05;;;;;;;;;;;34.50;20.00;;;;;;6253554;22;19911;-87
2022/07/15 11:45:15;;;;;;;;;;;34.10;19.80;;;;;;6256976;22;19918;-92
2022/07/15 11:47:50;;;;;;;;;;;33.80;20.10;;;;;;6225997;23;19908;-90
2022/07/15 11:50:22;;;;;;;;;;;33.80;20.10;;;;;;6223820;23;20244;-90
2022/07/15 11:52:50;;;;;;;;;;;33.80;20.50;;;;;;6258207;23;19915;-89
2022/07/15 11:55:17;;;;;;;;;;;34.10;20.70;;;;;;6258301;22;19911;-89
2022/07/15 11:57:56;;;;;;;;;;;34.30;20.70;;;;;;6258252;23;19951;-89
2022/07/15 12:00:31;;;;;;;;;;;34.60;20.70;;;;;;6255454;22;19915;-89
2022/07/15 12:03:15;;;;;;;;;;;34.80;20.40;;;;;;6258972;23;19904;-89
2022/07/15 12:05:58;;;;;;;;;;;35.10;20.20;;;;;;6229501;23;19911;-88
2022/07/15 12:08:38;;;;;;;;;;;35.40;19.80;;;;;;6230785;22;19916;-88
2022/07/15 12:11:09;;;;;;;;;;;35.50;19.00;;;;;;6229981;23;19903;-89
2022/07/15 12:14:05;;;;;;;;;;;35.30;18.80;;;;;;6256605;22;19912;-88
2022/07/15 12:16:32;;;;;;;;;;;35.20;19.10;;;;;;6198068;23;19904;-88
2022/07/15 12:19:19;;;;;;;;;;;35.90;19.40;;;;;;6257980;22;19995;-89
2022/07/15 12:21:50;;;;;;;;;;;37.10;18.90;;;;;;6229828;23;20324;-88
2022/07/15 12:24:20;;;;;;;;;;;38.10;17.20;;;;;;6255507;23;19919;-88
2022/07/15 12:26:54;;;;;;;;;;;38.70;17.10;;;;;;6258821;22;19911;-86
2022/07/15 12:29:21;;;;;;;;;;;39.40;16.80;;;;;;6258230;23;19914;-88
2022/07/15 12:31:57;;;;;;;;;;;39.90;15.60;;;;;;6255014;22;19916;-90
2022/07/15 12:34:42;;;;;;;;;;;40.20;15.80;;;;;;6225363;23;19904;-89
2022/07/15 12:37:08;;;;;;;;;;;40.50;15.50;;;;;;6223653;23;19923;-88
2022/07/15 12:39:33;;;;;;;;;;;41.20;15.40;;;;;;6250100;23;19903;-88
2022/07/15 12:42:00;;;;;;;;;;;41.50;15.20;;;;;;6254834;22;19907;-89
2022/07/15 12:44:26;;;;;;;;;;;41.50;15.30;;;;;;6231719;23;19911;-89
2022/07/15 12:46:56;;;;;;;;;;;41.30;15.20;;;;;;6254254;23;19957;-89
2022/07/15 12:49:42;;;;;;;;;;;41.20;15.40;;;;;;6256361;22;19922;-87
2022/07/15 12:52:37;;;;;;;;;;;40.90;15.20;;;;;;6228099;22;20308;-88
2022/07/15 12:55:18;;;;;;;;;;;40.30;15.30;;;;;;6200796;23;20266;-88
2022/07/15 12:57:44;;;;;;;;;;;39.70;15.70;;;;;;6233849;23;19908;-89
2022/07/15 13:00:12;;;;;;;;;;;39.20;16.20;;;;;;6254760;22;19911;-89
2022/07/15 13:02:59;;;;;;;;;;;38.80;16.40;;;;;;6236052;23;19903;-89
2022/07/15 13:05:26;;;;;;;;;;;38.40;16.70;;;;;;6227214;23;19911;-89
2022/07/15 13:07:51;;;;;;;;;;;38.20;16.90;;;;;;6249497;23;20244;-89
2022/07/15 13:10:17;;;;;;;;;;;37.90;16.90;;;;;;6249046;22;20011;-88
2022/07/15 13:12:42;;;;;;;;;;;37.60;17.10;;;;;;6248401;23;19910;-87
2022/07/15 13:15:08;;;;;;;;;;;37.30;17.30;;;;;;6248387;22;19962;-87
2022/07/15 13:17:35;;;;;;;;;;;36.90;17.40;;;;;;6247346;23;19904;-87
2022/07/15 13:20:01;;;;;;;;;;;36.40;17.40;;;;;;6249416;22;19919;-89
2022/07/15 13:22:28;;;;;;;;;;;35.70;17.70;;;;;;6219756;23;19904;-88
2022/07/15 13:24:54;;;;;;;;;;;35.00;18.30;;;;;;6247190;23;19916;-87
2022/07/15 13:27:19;;;;;;;;;;;34.30;18.80;;;;;;6222178;23;20366;-88
2022/07/15 13:29:45;;;;;;;;;;;33.80;19.40;;;;;;6249357;22;19988;-88
2022/07/15 13:32:10;;;;;;;;;;;33.30;19.90;;;;;;6247657;23;19957;-87
2022/07/15 13:34:36;;;;;;;;;;;32.90;20.40;;;;;;6248170;22;19918;-87
2022/07/15 13:37:01;;;;;;;;;;;32.40;20.90;;;;;;6249543;23;19903;-88
2022/07/15 13:39:27;;;;;;;;;;;32.00;21.40;;;;;;6249693;23;19994;-87
2022/07/15 13:41:52;;;;;;;;;;;31.70;21.80;;;;;;6245707;23;19911;-88
2022/07/15 13:44:18;;;;;;;;;;;31.40;22.20;;;;;;6248986;22;20331;-87
2022/07/15 13:46:43;;;;;;;;;;;31.20;22.50;;;;;;6248539;23;19910;-87
2022/07/15 13:49:09;;;;;;;;;;;31.00;22.80;;;;;;6221627;22;19915;-87
2022/07/15 13:51:36;;;;;;;;;;;30.80;23.10;;;;;;6244713;23;19904;-88
2022/07/15 13:54:02;;;;;;;;;;;30.80;23.30;;;;;;6249728;23;19930;-88
2022/07/15 13:56:27;;;;;;;;;;;30.80;23.40;;;;;;6248271;23;19916;-87
2022/07/15 13:58:57;;;;;;;;;;;30.80;23.50;;;;;;6246747;23;19903;-88
2022/07/15 14:01:23;;;;;;;;;;;31.00;23.40;;;;;;6247149;22;19952;-87
2022/07/15 14:03:49;;;;;;;;;;;31.10;23.20;;;;;;6248932;23;19907;-87
2022/07/15 14:06:24;;;;;;;;;;;;;;;;;;;;;
2022/07/15 14:08:50;;;;;;;;;;;31.90;22.80;;;;;;6249035;23;20372;-88
2022/07/15 14:11:17;;;;;;;;;;;32.30;22.70;;;;;;6218994;23;19907;-88
2022/07/15 14:13:42;;;;;;;;;;;32.80;22.40;;;;;;6250179;23;19908;-88
2022/07/15 14:16:08;;;;;;;;;;;33.20;22.30;;;;;;6249632;23;19976;-86
2022/07/15 14:18:46;;;;;;;;;;;33.40;21.90;;;;;;6251459;23;19911;-88
2022/07/15 14:21:15;;;;;;;;;;;33.40;21.80;;;;;;6250697;22;19904;-88
2022/07/15 14:23:44;;;;;;;;;;;33.40;21.90;;;;;;6224392;23;19916;-88
2022/07/15 14:26:10;;;;;;;;;;;33.30;21.70;;;;;;6227551;23;19911;-88
2022/07/15 14:28:42;;;;;;;;;;;33.20;21.70;;;;;;6256959;22;19916;-88
2022/07/15 14:31:08;;;;;;;;;;;33.10;21.70;;;;;;6194916;23;19919;-88
2022/07/15 14:33:33;;;;;;;;;;;33.00;21.70;;;;;;6223981;23;19911;-88